createdAt,value
2022-10-23T00:02:05.255Z,99875.94
2022-10-23T00:04:53.485Z,99874.69
2022-10-23T00:07:41.358Z,99879.44
2022-10-23T00:10:29.686Z,99866.06
2022-10-23T00:13:17.550Z,99875.50
2022-10-23T00:16:08.255Z,99870.78
2022-10-23T00:18:56.202Z,99868.44
2022-10-23T00:21:44.166Z,99860.13
2022-10-23T00:24:32.045Z,99847.13
2022-10-23T00:27:20.183Z,99849.13
2022-10-23T00:30:09.013Z,99767.59
2022-10-23T00:32:58.257Z,99848.34
2022-10-23T00:35:46.137Z,99850.28
2022-10-23T00:38:34.020Z,99840.84
2022-10-23T00:41:24.335Z,99845.19
2022-10-23T00:44:50.658Z,99844.41
2022-10-23T00:47:40.269Z,99842.84
2022-10-23T00:50:30.612Z,99833.34
2022-10-23T00:53:21.266Z,99825.84
2022-10-23T00:56:09.172Z,99819.94
2022-10-23T00:58:57.068Z,99829.41
2022-10-23T01:01:45.263Z,99824.66
2022-10-23T01:04:35.783Z,99808.84
2022-10-23T01:07:30.091Z,99810.41
2022-10-23T01:10:25.725Z,99799.28
2022-10-23T01:13:21.351Z,99796.91
2022-10-23T01:16:15.143Z,99797.31
2022-10-23T01:19:13.223Z,99799.66
2022-10-23T01:22:12.714Z,99800.00
2022-10-23T01:25:08.210Z,99806.34
2022-10-23T01:28:02.268Z,99806.75
2022-10-23T01:30:50.635Z,99796.16
2022-10-23T01:33:43.857Z,99808.41
2022-10-23T01:36:34.078Z,99802.50
2022-10-23T01:39:27.370Z,99805.69
2022-10-23T01:42:20.049Z,99806.50
2022-10-23T01:45:14.547Z,99802.56
2022-10-23T01:48:07.610Z,99804.13
2022-10-23T01:51:01.582Z,99812.81
2022-10-23T01:53:53.515Z,99812.03
2022-10-23T01:56:46.032Z,99802.63
2022-10-23T01:59:39.126Z,99759.72
2022-10-23T02:02:32.057Z,99783.28
2022-10-23T02:05:24.821Z,99762.81
2022-10-23T02:08:13.185Z,99749.78
2022-10-23T02:11:08.896Z,99758.78
2022-10-23T02:14:02.788Z,99750.91
2022-10-23T02:16:53.577Z,99768.59
2022-10-23T02:19:48.010Z,99768.63
2022-10-23T02:22:42.395Z,99741.88
2022-10-23T02:25:34.777Z,99763.94
2022-10-23T02:28:27.843Z,99763.56
2022-10-23T02:31:23.051Z,99755.28
2022-10-23T02:34:11.045Z,99748.25
2022-10-23T02:37:00.265Z,99765.59
2022-10-23T02:39:49.135Z,99772.66
2022-10-23T02:42:44.571Z,99767.97
2022-10-23T02:48:42.604Z,99752.97
2022-10-23T02:51:38.030Z,99745.47
2022-10-23T02:54:44.235Z,99739.50
2022-10-23T02:57:35.516Z,99739.50
2022-10-23T03:00:24.838Z,99713.09
2022-10-23T03:03:15.921Z,99743.03
2022-10-23T03:06:04.149Z,99741.88
2022-10-23T03:08:55.724Z,99737.94
2022-10-23T03:11:47.400Z,99733.25
2022-10-23T03:14:35.418Z,99578.16
2022-10-23T03:17:25.291Z,99728.16
2022-10-23T03:20:16.669Z,99722.19
2022-10-23T03:23:05.559Z,99715.50
2022-10-23T03:25:54.323Z,99717.06
2022-10-23T03:28:54.535Z,99718.66
2022-10-23T03:31:43.973Z,99713.94
2022-10-23T03:34:31.836Z,99715.91
2022-10-23T03:37:19.780Z,99710.78
2022-10-23T03:40:09.053Z,99717.88
2022-10-23T03:42:56.950Z,99713.16
2022-10-23T03:45:46.286Z,99722.25
2022-10-23T03:48:38.082Z,99717.91
2022-10-23T03:51:26.642Z,99718.72
2022-10-23T03:54:14.521Z,99718.34
2022-10-23T03:57:02.786Z,99708.50
2022-10-23T03:59:50.844Z,99716.38
2022-10-23T04:02:40.626Z,99721.13
2022-10-23T04:05:28.828Z,99722.69
2022-10-23T04:08:20.370Z,99725.84
2022-10-23T04:11:10.882Z,99717.19
2022-10-23T04:14:06.067Z,99708.91
2022-10-23T04:16:54.340Z,99725.06
2022-10-23T04:19:43.561Z,99734.13
2022-10-23T04:22:31.589Z,99734.91
2022-10-23T04:25:19.488Z,99736.09
2022-10-23T04:28:07.525Z,99745.16
2022-10-23T04:30:59.039Z,99733.34
2022-10-23T04:33:47.003Z,99718.38
2022-10-23T04:36:49.875Z,99710.47
2022-10-23T04:39:38.342Z,99719.97
2022-10-23T04:45:15.120Z,99719.56
2022-10-23T04:48:03.651Z,99721.53
2022-10-23T04:51:06.473Z,99715.22
2022-10-23T04:54:14.418Z,99710.09
2022-10-23T04:57:18.524Z,99716.00
2022-10-23T05:00:16.739Z,99715.22
2022-10-23T05:03:15.139Z,99698.28
2022-10-23T05:06:03.466Z,99698.69
2022-10-23T05:09:05.313Z,99696.72
2022-10-23T05:12:05.243Z,99705.78
2022-10-23T05:14:53.209Z,99702.63
2022-10-23T05:17:45.000Z,99698.69
2022-10-23T05:20:37.815Z,99705.78
2022-10-23T05:23:27.529Z,99703.78
2022-10-23T05:26:19.955Z,99696.66
2022-10-23T05:29:11.313Z,99699.06
2022-10-23T05:32:04.164Z,99693.53
2022-10-23T05:34:52.874Z,99706.94
2022-10-23T05:37:44.575Z,99709.31
2022-10-23T05:43:36.963Z,99675.84
2022-10-23T05:46:52.259Z,99678.19
2022-10-23T05:50:05.927Z,99668.34
2022-10-23T05:53:12.790Z,99660.09
2022-10-23T05:56:25.457Z,99667.97
2022-10-23T05:59:27.393Z,99666.38
2022-10-23T06:02:23.264Z,99652.59
2022-10-23T06:04:56.705Z,99642.69
2022-10-23T06:07:45.316Z,99644.19
2022-10-23T06:10:13.956Z,99651.66
2022-10-23T06:12:45.635Z,99647.28
2022-10-23T06:15:16.849Z,99647.69
2022-10-23T06:18:03.153Z,99650.84
2022-10-23T06:20:37.081Z,99649.28
2022-10-23T06:23:12.696Z,99652.47
2022-10-23T06:25:58.881Z,99643.00
2022-10-23T06:28:34.971Z,99639.09
2022-10-23T06:31:05.975Z,99634.75
2022-10-23T06:33:35.369Z,99631.22
2022-10-23T06:36:06.193Z,99629.22
2022-10-23T06:38:36.770Z,99635.91
2022-10-23T06:41:05.674Z,99633.56
2022-10-23T06:43:37.364Z,99642.97
2022-10-23T06:46:29.733Z,99648.13
2022-10-23T06:49:17.526Z,99653.66
2022-10-23T06:51:48.552Z,99655.25
2022-10-23T06:54:18.130Z,99656.50
2022-10-23T06:56:52.040Z,99647.41
2022-10-23T06:59:23.744Z,99641.84
2022-10-23T07:04:27.501Z,99656.00
2022-10-23T07:06:56.594Z,99651.25
2022-10-23T07:09:30.090Z,99648.44
2022-10-23T07:11:57.639Z,99661.41
2022-10-23T07:14:33.723Z,99665.69
2022-10-23T07:17:03.880Z,99669.56
2022-10-23T07:19:32.893Z,99661.31
2022-10-23T07:22:15.836Z,99661.00
2022-10-23T07:24:48.338Z,99659.81
2022-10-23T07:27:27.258Z,99663.34
2022-10-23T07:29:57.581Z,99654.56
2022-10-23T07:32:28.540Z,99665.13
2022-10-23T07:35:16.497Z,99658.03
2022-10-23T07:37:56.045Z,99661.09
2022-10-23T07:40:25.298Z,99648.47
2022-10-23T07:42:57.011Z,99668.63
2022-10-23T07:45:24.925Z,99656.88
2022-10-23T07:47:53.413Z,99665.03
2022-10-23T07:50:25.960Z,99665.34
2022-10-23T07:52:53.624Z,99670.47
2022-10-23T07:55:24.762Z,99668.00
2022-10-23T07:57:59.444Z,99660.75
2022-10-23T08:00:39.506Z,99666.16
2022-10-23T08:03:14.410Z,99658.88
2022-10-23T08:05:43.676Z,99579.41
2022-10-23T08:08:11.287Z,99663.78
2022-10-23T08:10:41.759Z,99664.84
2022-10-23T08:13:14.128Z,99662.44
2022-10-23T08:16:04.429Z,99656.38
2022-10-23T08:19:09.157Z,99659.91
2022-10-23T08:21:41.133Z,99644.66
2022-10-23T08:24:13.847Z,99633.94
2022-10-23T08:26:43.512Z,99621.97
2022-10-23T08:29:12.520Z,99631.78
2022-10-23T08:31:40.873Z,99641.84
2022-10-23T08:34:21.283Z,99635.91
2022-10-23T08:36:52.283Z,99631.00
2022-10-23T08:39:19.939Z,99625.09
2022-10-23T08:42:21.309Z,99610.13
2022-10-23T08:44:58.140Z,99618.00
2022-10-23T08:47:32.053Z,99624.66
2022-10-23T08:53:06.065Z,99618.44
2022-10-23T08:55:36.847Z,99622.19
2022-10-23T08:58:10.810Z,99623.53
2022-10-23T09:00:38.543Z,99620.41
2022-10-23T09:03:06.485Z,99614.25
2022-10-23T09:05:42.275Z,99613.25
2022-10-23T09:08:25.423Z,99606.44
2022-10-23T09:11:02.873Z,99598.06
2022-10-23T09:13:51.771Z,99608.75
2022-10-23T09:16:30.586Z,99606.59
2022-10-23T09:18:58.768Z,99614.03
2022-10-23T09:21:28.311Z,99617.69
2022-10-23T09:23:57.446Z,99605.69
2022-10-23T09:26:25.088Z,99607.53
2022-10-23T09:28:55.315Z,99607.66
2022-10-23T09:31:23.063Z,99611.28
2022-10-23T09:33:58.345Z,99613.75
2022-10-23T09:36:29.088Z,99607.84
2022-10-23T09:38:59.802Z,99588.97
2022-10-23T09:41:30.555Z,99592.28
2022-10-23T09:44:03.275Z,99604.84
2022-10-23T09:46:39.206Z,99598.56
2022-10-23T09:49:07.827Z,99616.63
2022-10-23T09:51:35.657Z,99608.13
2022-10-23T09:54:04.856Z,99625.41
2022-10-23T09:56:35.414Z,99623.53
2022-10-23T09:59:06.475Z,99637.41
2022-10-23T10:01:36.908Z,99624.09
2022-10-23T10:04:39.553Z,99613.22
2022-10-23T10:07:19.413Z,99604.88
2022-10-23T10:09:49.260Z,99601.56
2022-10-23T10:12:31.988Z,99604.78
2022-10-23T10:15:07.084Z,99589.13
2022-10-23T10:17:40.507Z,99582.94
2022-10-23T10:20:24.466Z,99577.25
2022-10-23T10:22:56.858Z,99565.47
2022-10-23T10:25:33.557Z,99569.41
2022-10-23T10:28:18.806Z,99569.91
2022-10-23T10:30:55.356Z,99579.22
2022-10-23T10:33:29.678Z,99573.94
2022-10-23T10:36:03.735Z,99578.59
2022-10-23T10:38:49.783Z,99588.75
2022-10-23T10:41:38.401Z,99584.06
2022-10-23T10:44:25.278Z,99579.03
2022-10-23T10:46:59.260Z,99563.56
2022-10-23T10:49:39.101Z,99554.59
2022-10-23T10:52:26.519Z,99550.69
2022-10-23T10:55:03.627Z,99546.19
2022-10-23T10:57:37.737Z,99550.19
2022-10-23T11:00:14.234Z,99544.31
2022-10-23T11:02:46.828Z,99540.59
2022-10-23T11:05:22.879Z,99549.78
2022-10-23T11:07:56.286Z,99538.44
2022-10-23T11:10:24.173Z,99511.69
2022-10-23T11:12:53.371Z,99546.34
2022-10-23T11:15:25.604Z,99547.78
2022-10-23T11:17:57.555Z,99561.09
2022-10-23T11:20:45.947Z,99563.53
2022-10-23T11:23:58.648Z,99566.34
2022-10-23T11:26:41.933Z,99569.56
2022-10-23T11:29:41.460Z,99550.63
2022-10-23T11:32:27.515Z,99531.38
2022-10-23T11:35:15.564Z,99514.78
2022-10-23T11:37:43.766Z,99510.63
2022-10-23T11:40:23.987Z,99505.94
2022-10-23T11:42:52.158Z,99490.88
2022-10-23T11:45:34.171Z,99497.03
2022-10-23T11:48:03.688Z,99494.09
2022-10-23T11:50:33.907Z,99499.13
2022-10-23T11:53:15.984Z,99497.59
2022-10-23T11:56:01.259Z,99476.63
2022-10-23T11:58:41.334Z,99504.25
2022-10-23T12:01:25.780Z,99474.06
2022-10-23T12:03:56.569Z,99485.22
2022-10-23T12:06:29.062Z,99482.16
2022-10-23T12:09:00.979Z,99481.78
2022-10-23T12:11:41.594Z,99473.53
2022-10-23T12:14:28.574Z,99461.16
2022-10-23T12:16:57.867Z,99443.66
2022-10-23T12:19:28.054Z,99446.28
2022-10-23T12:21:59.104Z,99433.38
2022-10-23T12:24:39.883Z,99433.53
2022-10-23T12:27:17.847Z,99435.13
2022-10-23T12:30:04.366Z,99441.78
2022-10-23T12:32:47.147Z,99440.13
2022-10-23T12:36:05.870Z,99428.44
2022-10-23T12:38:36.316Z,99408.09
2022-10-23T12:41:12.016Z,99412.06
2022-10-23T12:43:41.224Z,99413.19
2022-10-23T12:46:26.906Z,99408.03
2022-10-23T12:48:57.890Z,99394.22
2022-10-23T12:51:27.777Z,99390.56
2022-10-23T12:53:55.828Z,99379.22
2022-10-23T12:56:23.406Z,99386.84
2022-10-23T12:58:54.524Z,99310.38
2022-10-23T13:01:28.143Z,99386.06
2022-10-23T13:04:12.922Z,99385.13
2022-10-23T13:06:41.315Z,99393.06
2022-10-23T13:09:19.686Z,99399.91
2022-10-23T13:11:59.755Z,99385.81
2022-10-23T13:14:32.894Z,99395.28
2022-10-23T13:17:02.030Z,99389.84
2022-10-23T13:19:31.145Z,99372.88
2022-10-23T13:21:59.651Z,99365.13
2022-10-23T13:24:29.417Z,99349.56
2022-10-23T13:26:58.151Z,99353.31
2022-10-23T13:29:29.713Z,99361.69
2022-10-23T13:31:57.937Z,99348.44
2022-10-23T13:34:28.170Z,99335.72
2022-10-23T13:37:04.131Z,99351.75
2022-10-23T13:39:33.165Z,99353.91
2022-10-23T13:42:13.404Z,99337.75
2022-10-23T13:47:13.267Z,99341.78
2022-10-23T13:49:40.908Z,99335.88
2022-10-23T13:54:40.978Z,99336.81
2022-10-23T13:57:14.032Z,99322.53
2022-10-23T13:59:41.960Z,99320.50
2022-10-23T14:02:18.772Z,99312.41
2022-10-23T14:04:47.167Z,99307.91
2022-10-23T14:07:16.501Z,99303.88
2022-10-23T14:09:44.281Z,99300.75
2022-10-23T14:12:13.478Z,99290.66
2022-10-23T14:14:41.157Z,99295.97
2022-10-23T14:17:08.877Z,99284.59
2022-10-23T14:22:05.030Z,99276.53
2022-10-23T14:24:34.027Z,99285.53
2022-10-23T14:27:01.637Z,99274.16
2022-10-23T14:29:29.409Z,99273.34
2022-10-23T14:31:57.003Z,99272.13
2022-10-23T14:34:24.615Z,99282.03
2022-10-23T14:37:07.407Z,99281.59
2022-10-23T14:39:37.506Z,99278.69
2022-10-23T14:42:05.386Z,99273.25
2022-10-23T14:44:33.042Z,99267.94
2022-10-23T14:47:00.790Z,99261.09
2022-10-23T14:49:28.413Z,99260.44
2022-10-23T14:51:56.055Z,99267.47
2022-10-23T14:54:23.723Z,99260.94
2022-10-23T14:56:52.645Z,99266.66
2022-10-23T14:59:20.287Z,99252.00
2022-10-23T15:01:48.628Z,99252.69
2022-10-23T15:04:16.725Z,99252.84
2022-10-23T15:06:44.992Z,99252.84
2022-10-23T15:09:12.646Z,99244.50
2022-10-23T15:11:40.704Z,99246.41
2022-10-23T15:14:09.631Z,99238.34
2022-10-23T15:16:41.373Z,99243.38
2022-10-23T15:19:13.527Z,99235.31
2022-10-23T15:21:45.126Z,99245.06
2022-10-23T15:24:12.780Z,99253.94
2022-10-23T15:26:42.922Z,99244.19
2022-10-23T15:29:12.559Z,99246.53
2022-10-23T15:31:45.741Z,99244.06
2022-10-23T15:34:15.253Z,99238.13
2022-10-23T15:36:44.744Z,99235.78
2022-10-23T15:39:13.732Z,99239.31
2022-10-23T15:41:43.179Z,99228.31
2022-10-23T15:44:14.541Z,99219.78
2022-10-23T15:46:42.358Z,99199.22
2022-10-23T15:49:10.390Z,99211.34
2022-10-23T15:51:39.447Z,99211.94
2022-10-23T15:54:08.071Z,99218.06
2022-10-23T15:56:36.404Z,99211.75
2022-10-23T15:59:04.385Z,99179.00
2022-10-23T16:01:33.487Z,99185.09
2022-10-23T16:04:01.367Z,99181.38
2022-10-23T16:06:28.976Z,99187.72
2022-10-23T16:08:56.602Z,99186.75
2022-10-23T16:11:26.812Z,99195.53
2022-10-23T16:13:55.776Z,99188.28
2022-10-23T16:16:23.518Z,99183.22
2022-10-23T16:18:52.703Z,99189.19
2022-10-23T16:21:22.941Z,99178.25
2022-10-23T16:23:51.578Z,99174.75
2022-10-23T16:26:20.488Z,99180.41
2022-10-23T16:28:49.861Z,99170.25
2022-10-23T16:31:20.515Z,99144.56
2022-10-23T16:33:48.978Z,99125.31
2022-10-23T16:36:19.227Z,99154.25
2022-10-23T16:39:10.528Z,99146.09
2022-10-23T16:41:57.001Z,99145.47
2022-10-23T16:44:29.199Z,99144.88
2022-10-23T16:46:58.906Z,99145.88
2022-10-23T16:49:26.655Z,99149.09
2022-10-23T16:51:55.659Z,99134.22
2022-10-23T16:54:23.310Z,99134.25
2022-10-23T16:56:51.101Z,99133.50
2022-10-23T16:59:18.748Z,99126.03
2022-10-23T17:01:46.494Z,99125.09
2022-10-23T17:04:14.163Z,99125.38
2022-10-23T17:06:42.093Z,99126.38
2022-10-23T17:09:11.029Z,99124.38
2022-10-23T17:11:40.663Z,99125.28
2022-10-23T17:14:12.175Z,99146.75
2022-10-23T17:16:44.337Z,99150.63
2022-10-23T17:19:20.518Z,99151.72
2022-10-23T17:21:55.750Z,99159.50
2022-10-23T17:24:24.935Z,99164.63
2022-10-23T17:26:52.918Z,99168.03
2022-10-23T17:29:21.858Z,99176.75
2022-10-23T17:31:51.498Z,99187.78
2022-10-23T17:34:21.801Z,99195.31
2022-10-23T17:36:52.245Z,99200.72
2022-10-23T17:39:23.230Z,99217.72
2022-10-23T17:41:52.570Z,99230.56
2022-10-23T17:44:20.248Z,99256.25
2022-10-23T17:46:52.136Z,99267.38
2022-10-23T17:49:20.257Z,99287.13
2022-10-23T17:51:51.500Z,99312.59
2022-10-23T17:54:19.476Z,99379.28
2022-10-23T17:56:47.113Z,99412.22
2022-10-23T17:59:19.005Z,99449.34
2022-10-23T18:01:48.125Z,99466.59
2022-10-23T18:04:17.624Z,99440.69
2022-10-23T18:06:48.029Z,99423.94
2022-10-23T18:09:16.032Z,99427.31
2022-10-23T18:11:48.176Z,99427.16
2022-10-23T18:14:19.334Z,99408.50
2022-10-23T18:16:47.168Z,99410.22
2022-10-23T18:19:15.458Z,99348.66
2022-10-23T18:21:43.034Z,99403.56
2022-10-23T18:24:10.814Z,99398.47
2022-10-23T18:26:40.835Z,99320.13
2022-10-23T18:29:10.056Z,99347.44
2022-10-23T18:31:39.875Z,99326.19
2022-10-23T18:34:16.771Z,99313.25
2022-10-23T18:36:44.441Z,99317.28
2022-10-23T18:39:14.326Z,99293.22
2022-10-23T18:41:45.927Z,99274.41
2022-10-23T18:44:17.255Z,99310.50
2022-10-23T18:46:46.681Z,99328.19
2022-10-23T18:49:14.939Z,99335.72
2022-10-23T18:51:42.713Z,99350.56
2022-10-23T18:54:13.529Z,99350.41
2022-10-23T18:56:41.283Z,99354.03
2022-10-23T18:59:12.627Z,99353.88
2022-10-23T19:01:41.120Z,99357.34
2022-10-23T19:04:15.658Z,99340.16
2022-10-23T19:06:43.713Z,99343.03
2022-10-23T19:09:13.755Z,99355.44
2022-10-23T19:11:41.910Z,99339.47
2022-10-23T19:14:09.940Z,99341.19
2022-10-23T19:16:42.313Z,99326.44
2022-10-23T19:19:17.111Z,99319.84
2022-10-23T19:21:45.236Z,99318.03
2022-10-23T19:24:17.114Z,99302.34
2022-10-23T19:26:45.283Z,99311.88
2022-10-23T19:29:16.467Z,99318.72
2022-10-23T19:31:48.796Z,99314.56
2022-10-23T19:34:19.952Z,99318.22
2022-10-23T19:36:47.918Z,99307.78
2022-10-23T19:39:15.629Z,99314.50
2022-10-23T19:41:43.271Z,99300.84
2022-10-23T19:44:10.860Z,99305.91
2022-10-23T19:46:39.510Z,99310.91
2022-10-23T19:49:08.698Z,99303.72
2022-10-23T19:51:38.087Z,99296.34
2022-10-23T19:54:06.456Z,99307.88
2022-10-23T19:56:34.176Z,99311.97
2022-10-23T19:59:01.792Z,99310.81
2022-10-23T20:01:29.555Z,99311.53
2022-10-23T20:04:15.942Z,99321.59
2022-10-23T20:07:05.169Z,99321.94
2022-10-23T20:09:53.061Z,99320.34
2022-10-23T20:12:44.453Z,99326.88
2022-10-23T20:15:39.600Z,99314.50
2022-10-23T20:18:27.727Z,99324.00
2022-10-23T20:21:15.923Z,99318.19
2022-10-23T20:24:05.373Z,99327.66
2022-10-23T20:26:55.760Z,99327.19
2022-10-23T20:29:43.867Z,99325.88
2022-10-23T20:32:31.751Z,99330.44
2022-10-23T20:35:19.651Z,99332.88
2022-10-23T20:38:08.112Z,99327.66
2022-10-23T20:41:00.217Z,99340.19
2022-10-23T20:43:48.102Z,99334.31
2022-10-23T20:46:36.180Z,99333.53
2022-10-23T20:49:24.478Z,99342.91
2022-10-23T20:52:12.357Z,99341.53
2022-10-23T20:55:00.257Z,99353.94
2022-10-23T20:57:49.441Z,99348.81
2022-10-23T21:00:37.291Z,99349.41
2022-10-23T21:03:25.155Z,99361.44
2022-10-23T21:06:15.247Z,99359.63
2022-10-23T21:09:05.845Z,99369.41
2022-10-23T21:11:53.743Z,99371.84
2022-10-23T21:14:42.933Z,99372.66
2022-10-23T21:17:35.465Z,99375.50
2022-10-23T21:20:23.860Z,99370.38
2022-10-23T21:23:11.838Z,99379.63
2022-10-23T21:26:02.285Z,99384.31
2022-10-23T21:29:01.153Z,99389.19
2022-10-23T21:32:03.879Z,99399.28
2022-10-23T21:34:51.759Z,99390.16
2022-10-23T21:37:39.667Z,99399.53
2022-10-23T21:40:27.546Z,99392.00
2022-10-23T21:43:15.821Z,99396.31
2022-10-23T21:46:05.426Z,99400.41
2022-10-23T21:48:54.879Z,99389.97
2022-10-23T21:51:42.751Z,99391.84
2022-10-23T21:54:30.621Z,99392.41
2022-10-23T21:57:18.627Z,99400.75
2022-10-23T22:00:08.846Z,99402.22
2022-10-23T22:03:00.537Z,99399.81
2022-10-23T22:05:49.734Z,99389.50
2022-10-23T22:08:37.624Z,99382.97
2022-10-23T22:11:27.150Z,99382.50
2022-10-23T22:14:15.006Z,99386.38
2022-10-23T22:17:02.927Z,99386.28
2022-10-23T22:19:50.791Z,99387.28
2022-10-23T22:22:39.997Z,99393.38
2022-10-23T22:25:27.864Z,99384.97
2022-10-23T22:28:15.738Z,99386.34
2022-10-23T22:31:03.603Z,99376.44
2022-10-23T22:33:52.140Z,99383.00
2022-10-23T22:36:40.500Z,99349.19
2022-10-23T22:39:29.932Z,99383.19
2022-10-23T22:42:17.784Z,99378.13
2022-10-23T22:45:06.503Z,99383.25
2022-10-23T22:47:54.376Z,99386.25
2022-10-23T22:50:42.220Z,99391.28
2022-10-23T22:53:30.176Z,99380.59
2022-10-23T22:56:21.866Z,99379.91
2022-10-23T22:59:09.769Z,99376.25
2022-10-23T23:01:57.654Z,99378.41
2022-10-23T23:04:45.521Z,99379.91
2022-10-23T23:07:33.383Z,99384.50
2022-10-23T23:10:21.276Z,99386.34
2022-10-23T23:13:10.486Z,99390.16
2022-10-23T23:15:58.513Z,99398.03
2022-10-23T23:18:46.427Z,99388.94
2022-10-23T23:21:34.469Z,99391.44
2022-10-23T23:24:22.383Z,99399.53
2022-10-23T23:27:10.268Z,99399.09
2022-10-23T23:29:59.496Z,99398.66
2022-10-23T23:32:48.544Z,99372.91
2022-10-23T23:35:40.694Z,99410.53
2022-10-23T23:38:28.683Z,99406.09
2022-10-23T23:41:18.873Z,99392.56
2022-10-23T23:44:08.271Z,99372.28
2022-10-23T23:46:57.709Z,99392.53
2022-10-23T23:49:45.564Z,99395.53
2022-10-23T23:52:33.452Z,99391.88
2022-10-23T23:55:21.370Z,99393.47
2022-10-23T23:58:09.319Z,99406.91
